sensor_id;sensor_type;location;lat;lon;timestamp;pressure;altitude;pressure_sealevel;temperature;humidity
84592;BME280;74826;50.812;16.038;2024-01-11T00:00:06;97909.88;;;-8.32;60.31
84592;BME280;74826;50.812;16.038;2024-01-11T00:02:32;97904.63;;;-8.38;60.67
84592;BME280;74826;50.812;16.038;2024-01-11T00:04:57;97869.78;;;-8.62;57.72
84592;BME280;74826;50.812;16.038;2024-01-11T00:07:22;97869.97;;;-8.63;57.47
84592;BME280;74826;50.812;16.038;2024-01-11T00:09:48;97898.63;;;-8.45;60.21
84592;BME280;74826;50.812;16.038;2024-01-11T00:12:13;97892.38;;;-8.43;58.88
84592;BME280;74826;50.812;16.038;2024-01-11T00:14:39;97906.28;;;-8.45;60.25
84592;BME280;74826;50.812;16.038;2024-01-11T00:17:05;97872.81;;;-8.58;58.10
84592;BME280;74826;50.812;16.038;2024-01-11T00:19:30;97890.53;;;-8.57;59.77
84592;BME280;74826;50.812;16.038;2024-01-11T00:21:57;97905.66;;;-8.47;57.26
84592;BME280;74826;50.812;16.038;2024-01-11T00:24:22;97878.47;;;-8.48;56.80
84592;BME280;74826;50.812;16.038;2024-01-11T00:26:47;97795.75;;;-9.00;55.83
84592;BME280;74826;50.812;16.038;2024-01-11T00:29:13;97856.56;;;-8.65;56.38
84592;BME280;74826;50.812;16.038;2024-01-11T00:31:38;97868.97;;;-8.54;58.00
84592;BME280;74826;50.812;16.038;2024-01-11T00:34:04;97870.53;;;-8.53;58.95
84592;BME280;74826;50.812;16.038;2024-01-11T00:36:29;97870.53;;;-8.53;58.82
84592;BME280;74826;50.812;16.038;2024-01-11T00:38:55;97813.91;;;-8.87;57.67
84592;BME280;74826;50.812;16.038;2024-01-11T00:41:20;97863.84;;;-8.54;56.13
84592;BME280;74826;50.812;16.038;2024-01-11T00:43:46;97843.13;;;-8.67;56.81
84592;BME280;74826;50.812;16.038;2024-01-11T00:46:11;97850.03;;;-8.45;55.39
84592;BME280;74826;50.812;16.038;2024-01-11T00:48:37;97853.63;;;-8.54;56.53
84592;BME280;74826;50.812;16.038;2024-01-11T00:51:04;97839.94;;;-8.69;57.18
84592;BME280;74826;50.812;16.038;2024-01-11T00:53:30;97843.88;;;-8.59;56.36
84592;BME280;74826;50.812;16.038;2024-01-11T00:55:57;97831.09;;;-8.81;55.46
84592;BME280;74826;50.812;16.038;2024-01-11T00:58:22;97851.44;;;-8.65;55.81
84592;BME280;74826;50.812;16.038;2024-01-11T01:00:48;97828.47;;;-8.73;58.55
84592;BME280;74826;50.812;16.038;2024-01-11T01:03:14;97840.00;;;-8.77;58.66
84592;BME280;74826;50.812;16.038;2024-01-11T01:05:41;97851.34;;;-8.72;60.12
84592;BME280;74826;50.812;16.038;2024-01-11T01:08:06;97827.00;;;-8.90;57.97
84592;BME280;74826;50.812;16.038;2024-01-11T01:10:32;97812.00;;;-8.93;57.61
84592;BME280;74826;50.812;16.038;2024-01-11T01:12:58;97845.06;;;-8.69;57.92
84592;BME280;74826;50.812;16.038;2024-01-11T01:15:24;97843.50;;;-8.70;56.73
84592;BME280;74826;50.812;16.038;2024-01-11T01:17:49;97807.44;;;-8.83;57.48
84592;BME280;74826;50.812;16.038;2024-01-11T01:20:14;97830.88;;;-8.72;57.39
84592;BME280;74826;50.812;16.038;2024-01-11T01:22:40;97833.59;;;-8.73;57.02
84592;BME280;74826;50.812;16.038;2024-01-11T01:25:06;97826.78;;;-8.81;57.07
84592;BME280;74826;50.812;16.038;2024-01-11T01:27:31;97831.09;;;-8.81;58.11
84592;BME280;74826;50.812;16.038;2024-01-11T01:29:56;97841.94;;;-8.79;56.69
84592;BME280;74826;50.812;16.038;2024-01-11T01:32:22;97817.75;;;-8.91;56.78
84592;BME280;74826;50.812;16.038;2024-01-11T01:34:47;97829.72;;;-8.92;57.26
84592;BME280;74826;50.812;16.038;2024-01-11T01:37:13;97850.31;;;-8.85;57.23
84592;BME280;74826;50.812;16.038;2024-01-11T01:39:38;97855.34;;;-8.77;56.34
84592;BME280;74826;50.812;16.038;2024-01-11T01:42:04;97840.34;;;-8.80;56.91
84592;BME280;74826;50.812;16.038;2024-01-11T01:44:30;97822.91;;;-8.99;57.45
84592;BME280;74826;50.812;16.038;2024-01-11T01:46:56;97822.66;;;-9.13;57.88
84592;BME280;74826;50.812;16.038;2024-01-11T01:49:21;97835.69;;;-8.99;58.78
84592;BME280;74826;50.812;16.038;2024-01-11T01:51:48;97851.66;;;-8.97;59.57
84592;BME280;74826;50.812;16.038;2024-01-11T01:54:14;97803.22;;;-9.22;58.07
84592;BME280;74826;50.812;16.038;2024-01-11T01:56:40;97841.94;;;-9.33;60.29
84592;BME280;74826;50.812;16.038;2024-01-11T01:59:06;97829.84;;;-9.47;61.28
84592;BME280;74826;50.812;16.038;2024-01-11T02:01:32;97816.75;;;-9.44;59.93
84592;BME280;74826;50.812;16.038;2024-01-11T02:03:58;97827.19;;;-9.23;59.70
84592;BME280;74826;50.812;16.038;2024-01-11T02:06:25;97842.94;;;-9.11;58.85
84592;BME280;74826;50.812;16.038;2024-01-11T02:08:55;97807.88;;;-9.25;58.05
84592;BME280;74826;50.812;16.038;2024-01-11T02:11:21;97835.69;;;-8.99;56.89
84592;BME280;74826;50.812;16.038;2024-01-11T02:13:49;97826.81;;;-9.12;56.67
84592;BME280;74826;50.812;16.038;2024-01-11T02:16:14;97828.34;;;-9.02;57.25
84592;BME280;74826;50.812;16.038;2024-01-11T02:18:40;97822.31;;;-9.09;57.84
84592;BME280;74826;50.812;16.038;2024-01-11T02:21:09;97804.03;;;-9.21;58.80
84592;BME280;74826;50.812;16.038;2024-01-11T02:23:42;97823.84;;;-9.00;59.07
84592;BME280;74826;50.812;16.038;2024-01-11T02:26:11;97823.41;;;-9.04;57.48
84592;BME280;74826;50.812;16.038;2024-01-11T02:28:36;97844.63;;;-8.95;57.32
84592;BME280;74826;50.812;16.038;2024-01-11T02:31:02;97807.75;;;-9.32;56.46
84592;BME280;74826;50.812;16.038;2024-01-11T02:33:27;97842.19;;;-9.20;58.07
84592;BME280;74826;50.812;16.038;2024-01-11T02:35:53;97847.28;;;-9.20;57.58
84592;BME280;74826;50.812;16.038;2024-01-11T02:38:18;97824.88;;;-9.40;58.68
84592;BME280;74826;50.812;16.038;2024-01-11T02:40:44;97818.75;;;-9.31;57.42
84592;BME280;74826;50.812;16.038;2024-01-11T02:43:10;97841.16;;;-9.11;57.46
84592;BME280;74826;50.812;16.038;2024-01-11T02:45:36;97817.59;;;-9.21;58.33
84592;BME280;74826;50.812;16.038;2024-01-11T02:48:02;97839.38;;;-9.33;59.53
84592;BME280;74826;50.812;16.038;2024-01-11T02:50:27;97815.38;;;-9.62;60.99
84592;BME280;74826;50.812;16.038;2024-01-11T02:52:53;97840.22;;;-9.40;61.00
84592;BME280;74826;50.812;16.038;2024-01-11T02:55:18;97834.22;;;-9.25;61.27
84592;BME280;74826;50.812;16.038;2024-01-11T02:57:43;97869.44;;;-9.12;60.11
84592;BME280;74826;50.812;16.038;2024-01-11T03:00:09;97853.00;;;-9.09;58.08
84592;BME280;74826;50.812;16.038;2024-01-11T03:02:35;97820.72;;;-9.11;57.80
84592;BME280;74826;50.812;16.038;2024-01-11T03:05:01;97849.81;;;-8.89;56.22
84592;BME280;74826;50.812;16.038;2024-01-11T03:07:27;97845.91;;;-8.99;57.40
84592;BME280;74826;50.812;16.038;2024-01-11T03:09:53;97826.50;;;-9.17;56.63
84592;BME280;74826;50.812;16.038;2024-01-11T03:12:19;97837.66;;;-9.09;57.09
84592;BME280;74826;50.812;16.038;2024-01-11T03:14:44;97825.81;;;-9.11;57.97
84592;BME280;74826;50.812;16.038;2024-01-11T03:17:09;97835.78;;;-9.16;58.76
84592;BME280;74826;50.812;16.038;2024-01-11T03:19:41;97792.22;;;-9.53;59.28
84592;BME280;74826;50.812;16.038;2024-01-11T03:22:07;97802.97;;;-9.35;58.59
84592;BME280;74826;50.812;16.038;2024-01-11T03:24:32;97771.88;;;-9.38;60.49
84592;BME280;74826;50.812;16.038;2024-01-11T03:26:58;97811.13;;;-9.08;58.43
84592;BME280;74826;50.812;16.038;2024-01-11T03:29:23;97799.59;;;-9.04;58.72
84592;BME280;74826;50.812;16.038;2024-01-11T03:31:49;97771.44;;;-9.19;59.44
84592;BME280;74826;50.812;16.038;2024-01-11T03:34:14;97784.94;;;-9.11;58.33
84592;BME280;74826;50.812;16.038;2024-01-11T03:36:40;97752.34;;;-9.31;58.53
84592;BME280;74826;50.812;16.038;2024-01-11T03:39:05;97781.09;;;-9.06;58.09
84592;BME280;74826;50.812;16.038;2024-01-11T03:41:31;97756.66;;;-9.32;57.45
84592;BME280;74826;50.812;16.038;2024-01-11T03:43:56;97747.50;;;-9.49;58.69
84592;BME280;74826;50.812;16.038;2024-01-11T03:46:22;97768.13;;;-9.28;57.77
84592;BME280;74826;50.812;16.038;2024-01-11T03:48:47;97745.84;;;-9.42;58.50
84592;BME280;74826;50.812;16.038;2024-01-11T03:51:13;97778.34;;;-9.28;57.71
84592;BME280;74826;50.812;16.038;2024-01-11T03:53:38;97728.66;;;-9.48;58.09
84592;BME280;74826;50.812;16.038;2024-01-11T03:56:04;97735.91;;;-9.29;57.67
84592;BME280;74826;50.812;16.038;2024-01-11T03:58:29;97743.53;;;-9.21;57.86
84592;BME280;74826;50.812;16.038;2024-01-11T04:00:55;97743.63;;;-9.37;59.06
84592;BME280;74826;50.812;16.038;2024-01-11T04:03:20;97760.19;;;-9.10;58.33
84592;BME280;74826;50.812;16.038;2024-01-11T04:05:46;97776.03;;;-9.15;58.45
84592;BME280;74826;50.812;16.038;2024-01-11T04:08:11;97730.25;;;-9.47;57.98
84592;BME280;74826;50.812;16.038;2024-01-11T04:10:36;97763.38;;;-9.31;58.90
84592;BME280;74826;50.812;16.038;2024-01-11T04:13:02;97754.72;;;-9.30;57.13
84592;BME280;74826;50.812;16.038;2024-01-11T04:15:27;97783.59;;;-8.98;56.66
84592;BME280;74826;50.812;16.038;2024-01-11T04:17:53;97762.03;;;-9.19;57.78
84592;BME280;74826;50.812;16.038;2024-01-11T04:20:18;97777.22;;;-9.02;58.15
84592;BME280;74826;50.812;16.038;2024-01-11T04:22:44;97762.69;;;-9.02;57.16
84592;BME280;74826;50.812;16.038;2024-01-11T04:25:09;97786.69;;;-9.03;57.96
84592;BME280;74826;50.812;16.038;2024-01-11T04:27:35;97776.19;;;-9.16;58.79
84592;BME280;74826;50.812;16.038;2024-01-11T04:30:00;97774.22;;;-9.29;58.70
84592;BME280;74826;50.812;16.038;2024-01-11T04:32:26;97806.63;;;-9.06;59.30
84592;BME280;74826;50.812;16.038;2024-01-11T04:34:51;97787.91;;;-8.99;58.15
84592;BME280;74826;50.812;16.038;2024-01-11T04:37:18;97770.09;;;-9.07;58.94
84592;BME280;74826;50.812;16.038;2024-01-11T04:39:44;97771.34;;;-9.03;59.47
84592;BME280;74826;50.812;16.038;2024-01-11T04:42:09;97770.81;;;-8.98;57.26
84592;BME280;74826;50.812;16.038;2024-01-11T04:44:34;97758.13;;;-9.15;57.50
84592;BME280;74826;50.812;16.038;2024-01-11T04:47:00;97748.63;;;-9.21;58.21
84592;BME280;74826;50.812;16.038;2024-01-11T04:49:25;97754.50;;;-9.20;58.55
84592;BME280;74826;50.812;16.038;2024-01-11T04:51:51;97781.75;;;-9.13;61.09
84592;BME280;74826;50.812;16.038;2024-01-11T04:54:16;97790.41;;;-9.14;59.45
84592;BME280;74826;50.812;16.038;2024-01-11T04:56:42;97793.59;;;-9.12;57.91
84592;BME280;74826;50.812;16.038;2024-01-11T04:59:07;97771.66;;;-9.29;57.51
84592;BME280;74826;50.812;16.038;2024-01-11T05:01:32;97767.09;;;-9.41;58.24
84592;BME280;74826;50.812;16.038;2024-01-11T05:03:58;97763.69;;;-9.34;59.26
84592;BME280;74826;50.812;16.038;2024-01-11T05:06:23;97757.25;;;-9.22;58.68
84592;BME280;74826;50.812;16.038;2024-01-11T05:08:51;97788.75;;;-9.06;59.75
84592;BME280;74826;50.812;16.038;2024-01-11T05:11:22;97787.44;;;-9.02;57.50
84592;BME280;74826;50.812;16.038;2024-01-11T05:13:49;97789.06;;;-9.01;56.85
84592;BME280;74826;50.812;16.038;2024-01-11T05:16:19;97779.72;;;-8.94;58.38
84592;BME280;74826;50.812;16.038;2024-01-11T05:18:45;97775.88;;;-8.90;57.61
84592;BME280;74826;50.812;16.038;2024-01-11T05:21:10;97766.63;;;-8.91;57.73
84592;BME280;74826;50.812;16.038;2024-01-11T05:23:36;97775.88;;;-8.90;57.80
84592;BME280;74826;50.812;16.038;2024-01-11T05:26:01;97781.34;;;-8.93;57.79
84592;BME280;74826;50.812;16.038;2024-01-11T05:28:27;97773.38;;;-8.98;57.74
84592;BME280;74826;50.812;16.038;2024-01-11T05:30:52;97772.13;;;-9.02;57.68
84592;BME280;74826;50.812;16.038;2024-01-11T05:33:18;97769.63;;;-9.11;58.41
84592;BME280;74826;50.812;16.038;2024-01-11T05:35:43;97761.84;;;-9.48;59.29
84592;BME280;74826;50.812;16.038;2024-01-11T05:38:08;97777.09;;;-9.32;59.80
84592;BME280;74826;50.812;16.038;2024-01-11T05:40:34;97781.88;;;-9.29;58.74
84592;BME280;74826;50.812;16.038;2024-01-11T05:42:59;97767.63;;;-9.23;57.71
84592;BME280;74826;50.812;16.038;2024-01-11T05:45:25;97751.91;;;-9.35;58.16
84592;BME280;74826;50.812;16.038;2024-01-11T05:47:50;97761.19;;;-9.42;58.87
84592;BME280;74826;50.812;16.038;2024-01-11T05:50:15;97728.06;;;-9.50;59.12
84592;BME280;74826;50.812;16.038;2024-01-11T05:52:41;97742.69;;;-9.44;58.53
84592;BME280;74826;50.812;16.038;2024-01-11T05:55:07;97763.38;;;-9.31;59.15
84592;BME280;74826;50.812;16.038;2024-01-11T05:57:32;97762.13;;;-9.35;58.16
84592;BME280;74826;50.812;16.038;2024-01-11T05:59:58;97781.66;;;-9.19;58.09
84592;BME280;74826;50.812;16.038;2024-01-11T06:02:23;97769.75;;;-9.27;59.18
84592;BME280;74826;50.812;16.038;2024-01-11T06:04:49;97759.16;;;-9.24;58.40
84592;BME280;74826;50.812;16.038;2024-01-11T06:07:15;97747.91;;;-9.15;57.88
84592;BME280;74826;50.812;16.038;2024-01-11T06:09:40;97747.25;;;-9.08;58.21
84592;BME280;74826;50.812;16.038;2024-01-11T06:12:05;97727.03;;;-9.18;57.22
84592;BME280;74826;50.812;16.038;2024-01-11T06:14:31;97725.56;;;-9.13;56.66
84592;BME280;74826;50.812;16.038;2024-01-11T06:16:56;97742.38;;;-8.95;57.94
84592;BME280;74826;50.812;16.038;2024-01-11T06:19:22;97726.88;;;-8.94;57.33
84592;BME280;74826;50.812;16.038;2024-01-11T06:21:48;97727.09;;;-9.03;58.42
84592;BME280;74826;50.812;16.038;2024-01-11T06:24:13;97698.75;;;-9.17;58.35
84592;BME280;74826;50.812;16.038;2024-01-11T06:26:39;97679.72;;;-9.29;59.02
84592;BME280;74826;50.812;16.038;2024-01-11T06:29:04;97700.00;;;-9.13;60.07
84592;BME280;74826;50.812;16.038;2024-01-11T06:31:30;97676.63;;;-9.24;59.73
84592;BME280;74826;50.812;16.038;2024-01-11T06:33:55;97688.88;;;-9.20;59.58
84592;BME280;74826;50.812;16.038;2024-01-11T06:36:21;97683.41;;;-9.17;58.99
84592;BME280;74826;50.812;16.038;2024-01-11T06:38:46;97710.63;;;-9.01;59.21
84592;BME280;74826;50.812;16.038;2024-01-11T06:41:12;97705.28;;;-9.14;59.35
84592;BME280;74826;50.812;16.038;2024-01-11T06:43:37;97694.63;;;-9.18;59.36
84592;BME280;74826;50.812;16.038;2024-01-11T06:46:04;97706.94;;;-8.98;58.51
84592;BME280;74826;50.812;16.038;2024-01-11T06:48:29;97696.50;;;-9.12;59.99
84592;BME280;74826;50.812;16.038;2024-01-11T06:50:55;97644.63;;;-9.35;60.80
84592;BME280;74826;50.812;16.038;2024-01-11T06:53:20;97639.03;;;-9.16;60.18
84592;BME280;74826;50.812;16.038;2024-01-11T06:55:46;97681.25;;;-8.82;60.21
84592;BME280;74826;50.812;16.038;2024-01-11T06:58:13;97672.50;;;-8.73;60.42
84592;BME280;74826;50.812;16.038;2024-01-11T07:00:38;97683.53;;;-8.87;60.12
84592;BME280;74826;50.812;16.038;2024-01-11T07:03:11;97666.59;;;-8.88;61.24
84592;BME280;74826;50.812;16.038;2024-01-11T07:05:36;97692.91;;;-8.65;60.39
84592;BME280;74826;50.812;16.038;2024-01-11T07:08:02;97711.09;;;-8.60;61.43
84592;BME280;74826;50.812;16.038;2024-01-11T07:10:27;97708.72;;;-8.47;60.70
84592;BME280;74826;50.812;16.038;2024-01-11T07:12:53;97687.53;;;-8.56;60.59
84592;BME280;74826;50.812;16.038;2024-01-11T07:15:18;97698.97;;;-8.23;60.95
84592;BME280;74826;50.812;16.038;2024-01-11T07:17:44;97670.31;;;-8.18;60.47
84592;BME280;74826;50.812;16.038;2024-01-11T07:20:09;97705.53;;;-8.05;60.88
84592;BME280;74826;50.812;16.038;2024-01-11T07:22:35;97696.50;;;-8.01;60.86
84592;BME280;74826;50.812;16.038;2024-01-11T07:25:01;97702.03;;;-7.83;61.30
84592;BME280;74826;50.812;16.038;2024-01-11T07:27:26;97664.34;;;-7.89;60.63
84592;BME280;74826;50.812;16.038;2024-01-11T07:29:51;97672.06;;;-7.68;60.66
84592;BME280;74826;50.812;16.038;2024-01-11T07:32:17;97699.84;;;-7.51;61.37
84592;BME280;74826;50.812;16.038;2024-01-11T07:34:42;97648.47;;;-7.64;60.47
84592;BME280;74826;50.812;16.038;2024-01-11T07:37:07;97664.13;;;-7.59;61.35
84592;BME280;74826;50.812;16.038;2024-01-11T07:39:33;97699.63;;;-7.35;61.11
84592;BME280;74826;50.812;16.038;2024-01-11T07:41:59;97666.81;;;-7.46;61.78
84592;BME280;74826;50.812;16.038;2024-01-11T07:44:24;97689.72;;;-7.59;63.70
84592;BME280;74826;50.812;16.038;2024-01-11T07:46:50;97694.00;;;-7.45;63.79
84592;BME280;74826;50.812;16.038;2024-01-11T07:49:15;97662.53;;;-7.39;63.36
84592;BME280;74826;50.812;16.038;2024-01-11T07:51:41;97695.59;;;-7.01;62.59
84592;BME280;74826;50.812;16.038;2024-01-11T07:54:06;97660.44;;;-7.07;63.46
84592;BME280;74826;50.812;16.038;2024-01-11T07:56:32;97674.41;;;-6.89;62.22
84592;BME280;74826;50.812;16.038;2024-01-11T07:58:57;97656.25;;;-6.87;62.29
84592;BME280;74826;50.812;16.038;2024-01-11T08:01:23;97674.09;;;-6.79;62.34
84592;BME280;74826;50.812;16.038;2024-01-11T08:03:48;97670.16;;;-6.75;63.01
84592;BME280;74826;50.812;16.038;2024-01-11T08:06:17;97670.34;;;-6.49;63.31
84592;BME280;74826;50.812;16.038;2024-01-11T08:08:43;97653.97;;;-6.48;62.71
84592;BME280;74826;50.812;16.038;2024-01-11T08:11:09;97665.97;;;-6.21;62.78
84592;BME280;74826;50.812;16.038;2024-01-11T08:13:34;97642.63;;;-6.26;61.52
84592;BME280;74826;50.812;16.038;2024-01-11T08:16:01;97643.22;;;-6.24;62.45
84592;BME280;74826;50.812;16.038;2024-01-11T08:18:29;97672.25;;;-5.89;63.29
84592;BME280;74826;50.812;16.038;2024-01-11T08:20:55;97662.38;;;-5.73;61.93
84592;BME280;74826;50.812;16.038;2024-01-11T08:23:20;97631.09;;;-5.96;62.03
84592;BME280;74826;50.812;16.038;2024-01-11T08:25:46;97660.84;;;-5.61;62.27
84592;BME280;74826;50.812;16.038;2024-01-11T08:28:11;97653.75;;;-5.46;62.09
84592;BME280;74826;50.812;16.038;2024-01-11T08:30:36;97665.25;;;-5.35;61.41
84592;BME280;74826;50.812;16.038;2024-01-11T08:33:02;97633.59;;;-5.42;62.16
84592;BME280;74826;50.812;16.038;2024-01-11T08:35:29;97627.69;;;-5.29;63.21
84592;BME280;74826;50.812;16.038;2024-01-11T08:37:54;97651.81;;;-5.11;63.13
84592;BME280;74826;50.812;16.038;2024-01-11T08:40:21;97641.53;;;-5.04;63.55
84592;BME280;74826;50.812;16.038;2024-01-11T08:42:46;97639.38;;;-5.07;62.84
84592;BME280;74826;50.812;16.038;2024-01-11T08:45:12;97645.91;;;-4.98;65.58
84592;BME280;74826;50.812;16.038;2024-01-11T08:47:44;97659.34;;;-4.64;65.56
84592;BME280;74826;50.812;16.038;2024-01-11T08:50:12;97630.44;;;-4.59;64.79
84592;BME280;74826;50.812;16.038;2024-01-11T08:52:38;97625.28;;;-4.53;66.25
84592;BME280;74826;50.812;16.038;2024-01-11T08:55:05;97652.91;;;-4.15;63.66
84592;BME280;74826;50.812;16.038;2024-01-11T08:57:30;97634.69;;;-4.14;63.03
84592;BME280;74826;50.812;16.038;2024-01-11T08:59:55;97644.94;;;-4.01;64.99
84592;BME280;74826;50.812;16.038;2024-01-11T09:02:21;97635.94;;;-3.85;65.57
84592;BME280;74826;50.812;16.038;2024-01-11T09:04:48;97671.72;;;-3.57;63.18
84592;BME280;74826;50.812;16.038;2024-01-11T09:07:13;97637.13;;;-3.88;63.71
84592;BME280;74826;50.812;16.038;2024-01-11T09:09:39;97634.78;;;-3.51;62.08
84592;BME280;74826;50.812;16.038;2024-01-11T09:12:05;97650.97;;;-3.38;61.70
84592;BME280;74826;50.812;16.038;2024-01-11T09:14:31;97639.91;;;-3.45;62.63
84592;BME280;74826;50.812;16.038;2024-01-11T09:16:57;97599.47;;;-3.51;62.48
84592;BME280;74826;50.812;16.038;2024-01-11T09:19:22;97645.38;;;-3.04;62.86
84592;BME280;74826;50.812;16.038;2024-01-11T09:21:48;97632.59;;;-2.92;60.32
84592;BME280;74826;50.812;16.038;2024-01-11T09:24:13;97612.59;;;-2.97;60.39
84592;BME280;74826;50.812;16.038;2024-01-11T09:26:38;97625.75;;;-2.80;60.75
84592;BME280;74826;50.812;16.038;2024-01-11T09:29:04;97629.47;;;-2.76;59.63
84592;BME280;74826;50.812;16.038;2024-01-11T09:31:29;97621.59;;;-2.81;59.96
84592;BME280;74826;50.812;16.038;2024-01-11T09:33:54;97613.56;;;-2.73;60.25
84592;BME280;74826;50.812;16.038;2024-01-11T09:36:22;97625.78;;;-2.62;60.88
84592;BME280;74826;50.812;16.038;2024-01-11T09:38:48;97602.81;;;-2.70;59.96
84592;BME280;74826;50.812;16.038;2024-01-11T09:41:14;97621.28;;;-2.48;59.83
84592;BME280;74826;50.812;16.038;2024-01-11T09:43:42;97616.97;;;-2.54;61.65
84592;BME280;74826;50.812;16.038;2024-01-11T09:46:09;97594.66;;;-2.49;60.98
84592;BME280;74826;50.812;16.038;2024-01-11T09:48:38;97618.78;;;-2.37;60.68
84592;BME280;74826;50.812;16.038;2024-01-11T09:51:08;97617.78;;;-2.18;60.71
84592;BME280;74826;50.812;16.038;2024-01-11T09:53:35;97615.75;;;-2.16;61.82
84592;BME280;74826;50.812;16.038;2024-01-11T09:56:09;97600.97;;;-2.09;60.05
84592;BME280;74826;50.812;16.038;2024-01-11T09:58:35;97596.31;;;-2.18;61.43
84592;BME280;74826;50.812;16.038;2024-01-11T10:01:09;97602.13;;;-2.23;62.82
84592;BME280;74826;50.812;16.038;2024-01-11T10:03:35;97606.28;;;-1.86;63.15
84592;BME280;74826;50.812;16.038;2024-01-11T10:06:02;97591.31;;;-1.84;60.80
84592;BME280;74826;50.812;16.038;2024-01-11T10:08:29;97572.09;;;-1.88;62.25
84592;BME280;74826;50.812;16.038;2024-01-11T10:10:55;97575.13;;;-1.79;63.36
84592;BME280;74826;50.812;16.038;2024-01-11T10:13:30;97590.03;;;-1.33;61.29
84592;BME280;74826;50.812;16.038;2024-01-11T10:16:09;97565.13;;;-1.34;62.02
84592;BME280;74826;50.812;16.038;2024-01-11T10:18:35;97573.28;;;-1.31;59.84
84592;BME280;74826;50.812;16.038;2024-01-11T10:21:02;97586.22;;;-1.19;61.14
84592;BME280;74826;50.812;16.038;2024-01-11T10:23:28;97570.78;;;-1.37;62.36
84592;BME280;74826;50.812;16.038;2024-01-11T10:25:56;97597.06;;;-0.99;62.53
84592;BME280;74826;50.812;16.038;2024-01-11T10:28:22;97577.34;;;-1.00;61.22
84592;BME280;74826;50.812;16.038;2024-01-11T10:30:50;97559.88;;;-1.16;61.47
84592;BME280;74826;50.812;16.038;2024-01-11T10:33:19;97566.88;;;-1.05;61.29
84592;BME280;74826;50.812;16.038;2024-01-11T10:35:45;97539.19;;;-1.16;61.70
84592;BME280;74826;50.812;16.038;2024-01-11T10:38:11;97553.94;;;-0.94;61.50
84592;BME280;74826;50.812;16.038;2024-01-11T10:40:38;97539.41;;;-0.83;60.59
84592;BME280;74826;50.812;16.038;2024-01-11T10:43:05;97552.69;;;-0.68;61.28
84592;BME280;74826;50.812;16.038;2024-01-11T10:45:36;97564.97;;;-0.63;62.22
84592;BME280;74826;50.812;16.038;2024-01-11T10:48:13;97551.78;;;-0.62;62.86
84592;BME280;74826;50.812;16.038;2024-01-11T10:50:45;97548.41;;;-0.74;61.57
84592;BME280;74826;50.812;16.038;2024-01-11T10:56:03;97538.72;;;-0.67;62.96
84592;BME280;74826;50.812;16.038;2024-01-11T10:58:30;97545.00;;;-0.40;62.53
84592;BME280;74826;50.812;16.038;2024-01-11T11:00:57;97536.03;;;-0.21;62.62
84592;BME280;74826;50.812;16.038;2024-01-11T11:03:25;97523.19;;;-0.27;62.19
84592;BME280;74826;50.812;16.038;2024-01-11T11:05:52;97537.81;;;-0.10;62.53
84592;BME280;74826;50.812;16.038;2024-01-11T11:08:19;97517.59;;;-0.08;61.63
84592;BME280;74826;50.812;16.038;2024-01-11T11:10:45;97499.56;;;-0.03;61.66
84592;BME280;74826;50.812;16.038;2024-01-11T11:13:14;97514.53;;;0.24;62.47
84592;BME280;74826;50.812;16.038;2024-01-11T11:15:45;97478.88;;;0.31;60.74
84592;BME280;74826;50.812;16.038;2024-01-11T11:18:12;97497.75;;;0.43;61.64
84592;BME280;74826;50.812;16.038;2024-01-11T11:20:39;97493.91;;;0.62;61.90
84592;BME280;74826;50.812;16.038;2024-01-11T11:23:08;97498.56;;;0.60;64.82
84592;BME280;74826;50.812;16.038;2024-01-11T11:25:35;97484.84;;;0.81;60.54
84592;BME280;74826;50.812;16.038;2024-01-11T11:28:01;97516.94;;;1.08;57.36
84592;BME280;74826;50.812;16.038;2024-01-11T11:30:36;97492.03;;;1.12;54.07
84592;BME280;74826;50.812;16.038;2024-01-11T11:33:25;97502.84;;;1.42;52.91
84592;BME280;74826;50.812;16.038;2024-01-11T11:35:57;97497.16;;;1.45;53.26
84592;BME280;74826;50.812;16.038;2024-01-11T11:38:27;97446.63;;;1.36;52.70
84592;BME280;74826;50.812;16.038;2024-01-11T11:40:57;97490.16;;;1.67;53.57
84592;BME280;74826;50.812;16.038;2024-01-11T11:43:25;97483.66;;;1.48;55.19
84592;BME280;74826;50.812;16.038;2024-01-11T11:45:51;97479.34;;;1.54;50.96
84592;BME280;74826;50.812;16.038;2024-01-11T11:51:07;97463.38;;;1.94;50.36
84592;BME280;74826;50.812;16.038;2024-01-11T11:53:35;97444.03;;;2.11;51.33
84592;BME280;74826;50.812;16.038;2024-01-11T11:56:01;97449.88;;;2.28;47.13
84592;BME280;74826;50.812;16.038;2024-01-11T11:58:31;97451.13;;;2.21;46.01
84592;BME280;74826;50.812;16.038;2024-01-11T12:00:58;97455.88;;;2.24;49.03
84592;BME280;74826;50.812;16.038;2024-01-11T12:03:34;97463.38;;;1.94;47.99
84592;BME280;74826;50.812;16.038;2024-01-11T12:06:04;97441.88;;;1.76;47.53
84592;BME280;74826;50.812;16.038;2024-01-11T12:08:30;97460.72;;;1.89;50.05
84592;BME280;74826;50.812;16.038;2024-01-11T12:10:56;97433.91;;;1.61;48.15
84592;BME280;74826;50.812;16.038;2024-01-11T12:13:22;97445.59;;;1.59;48.77
84592;BME280;74826;50.812;16.038;2024-01-11T12:15:47;97423.00;;;1.64;47.97
84592;BME280;74826;50.812;16.038;2024-01-11T12:18:13;97432.13;;;1.89;49.27
84592;BME280;74826;50.812;16.038;2024-01-11T12:20:38;97397.66;;;1.76;48.90
84592;BME280;74826;50.812;16.038;2024-01-11T12:23:04;97414.00;;;1.99;49.21
84592;BME280;74826;50.812;16.038;2024-01-11T12:25:30;97419.09;;;1.89;49.93
84592;BME280;74826;50.812;16.038;2024-01-11T12:27:56;97437.22;;;1.57;50.45
84592;BME280;74826;50.812;16.038;2024-01-11T12:30:23;97439.38;;;1.38;50.64
84592;BME280;74826;50.812;16.038;2024-01-11T12:32:49;97446.09;;;0.96;52.96
84592;BME280;74826;50.812;16.038;2024-01-11T12:35:15;97466.22;;;1.06;52.78
84592;BME280;74826;50.812;16.038;2024-01-11T12:37:41;97433.13;;;0.96;52.56
84592;BME280;74826;50.812;16.038;2024-01-11T12:40:07;97440.13;;;1.17;52.26
84592;BME280;74826;50.812;16.038;2024-01-11T12:42:35;97431.88;;;1.20;49.45
84592;BME280;74826;50.812;16.038;2024-01-11T12:45:01;97441.44;;;1.36;50.39
84592;BME280;74826;50.812;16.038;2024-01-11T12:47:26;97424.97;;;1.52;48.92
84592;BME280;74826;50.812;16.038;2024-01-11T12:49:52;97421.56;;;1.73;49.70